Dunbar, Wisconsin
Current Conditions -  °F | °C
As of 6:54 PM on Saturday 20 Dec 2014 (Local Time) from KIMT Reporting Station
Overcast Overcast  
Wind Chill: 22°   Ceiling: 2800
Heat Index: 27°   Visibility: 9mi
Dew Point: 23°   Wind: 5mph
Humidity: 85%   Direction: 130°SE
Pressure: 30.18"   Gusts: NA
Location:  45.65°N, 88.17°W
Report Text: KIMT 210054Z AUTO 13004KT 9SM OVC028 M03/M05 A3018 RMK AO2 SLP240 T10281050
Loading
Personal Weather Stations






























Interactive Weather Map New forecast layout! Learn more

10-Day Weather Forecast

Advertisements
Track Severe Weather on mobile